Time;durP1;ratioP1;P1;durP2;ratioP2;P2;SDS_P1;SDS_P2;PMS_P1;PMS_P2;Temp;Humidity;BMP_temperature;BMP_pressure;BME280_temperature;BME280_humidity;BME280_pressure;Samples;Min_cycle;Max_cycle;Signal;HPM_P1;HPM_P2
2023/12/20 00:01:32;;;;;;;13.88;1.38;;;;;;;;;;5063345;28;20106;-61
2023/12/20 00:03:58;;;;;;;9.18;1.02;;;;;;;;;;5053920;28;20052;-60
2023/12/20 00:06:24;;;;;;;9.98;1.38;;;;;;;;;;5059417;28;20585;-60
2023/12/20 00:08:50;;;;;;;14.50;1.38;;;;;;;;;;5046215;28;20045;-61
2023/12/20 00:11:16;;;;;;;9.77;1.30;;;;;;;;;;5059158;28;20044;-61
2023/12/20 00:13:42;;;;;;;8.38;1.02;;;;;;;;;;5062755;28;20047;-60
2023/12/20 00:16:08;;;;;;;10.85;1.20;;;;;;;;;;5059417;28;20127;-61
2023/12/20 00:18:34;;;;;;;10.30;1.02;;;;;;;;;;5060287;28;20037;-61
2023/12/20 00:21:00;;;;;;;9.82;1.42;;;;;;;;;;5058899;28;20668;-60
2023/12/20 00:23:26;;;;;;;15.50;1.50;;;;;;;;;;5059740;28;20033;-61
2023/12/20 00:25:52;;;;;;;13.32;1.10;;;;;;;;;;5057324;28;20059;-60
2023/12/20 00:28:18;;;;;;;22.30;3.67;;;;;;;;;;5056633;28;20447;-61
2023/12/20 00:30:44;;;;;;;10.88;1.40;;;;;;;;;;5050226;28;20508;-61
2023/12/20 00:33:10;;;;;;;6.57;1.15;;;;;;;;;;5046826;28;20048;-60
2023/12/20 00:35:36;;;;;;;14.95;1.20;;;;;;;;;;5058190;28;20044;-61
2023/12/20 00:38:02;;;;;;;6.72;1.27;;;;;;;;;;5044707;28;20049;-61
2023/12/20 00:40:28;;;;;;;8.95;1.05;;;;;;;;;;5057623;28;20037;-61
2023/12/20 00:42:54;;;;;;;11.77;1.00;;;;;;;;;;5052984;28;20514;-61
2023/12/20 00:45:20;;;;;;;10.50;1.20;;;;;;;;;;5060190;28;20047;-61
2023/12/20 00:47:46;;;;;;;9.65;1.00;;;;;;;;;;5062571;28;20048;-61
2023/12/20 00:50:12;;;;;;;6.28;1.23;;;;;;;;;;5055520;28;20028;-61
2023/12/20 00:52:38;;;;;;;13.48;1.67;;;;;;;;;;5061070;28;20044;-61
2023/12/20 00:55:04;;;;;;;13.18;1.48;;;;;;;;;;5058482;28;20086;-61
2023/12/20 00:57:31;;;;;;;7.85;0.95;;;;;;;;;;5057357;28;20093;-61
2023/12/20 00:59:57;;;;;;;18.10;1.73;;;;;;;;;;5053491;28;20047;-61
2023/12/20 01:02:23;;;;;;;17.67;1.75;;;;;;;;;;5052608;28;20052;-61
2023/12/20 01:04:49;;;;;;;19.15;2.80;;;;;;;;;;5051742;28;20494;-61
2023/12/20 01:07:15;;;;;;;17.77;1.60;;;;;;;;;;5045643;28;20061;-61
2023/12/20 01:09:41;;;;;;;15.00;2.03;;;;;;;;;;5059559;28;20092;-61
2023/12/20 01:12:07;;;;;;;13.60;2.28;;;;;;;;;;5051695;28;20410;-61
2023/12/20 01:14:33;;;;;;;16.50;1.40;;;;;;;;;;5058897;28;20044;-61
2023/12/20 01:17:00;;;;;;;8.20;1.35;;;;;;;;;;5061289;28;20047;-61
2023/12/20 01:19:27;;;;;;;15.38;1.20;;;;;;;;;;5057605;28;20078;-61
2023/12/20 01:21:53;;;;;;;13.88;1.33;;;;;;;;;;5060684;28;20049;-61
2023/12/20 01:24:19;;;;;;;10.30;1.75;;;;;;;;;;5056819;28;20093;-61
2023/12/20 01:26:45;;;;;;;8.18;1.17;;;;;;;;;;5057972;28;20048;-61
2023/12/20 01:29:12;;;;;;;11.40;1.45;;;;;;;;;;5052296;28;20483;-61
2023/12/20 01:31:38;;;;;;;8.23;1.08;;;;;;;;;;5057740;28;20044;-61
2023/12/20 01:34:04;;;;;;;6.53;1.20;;;;;;;;;;5061362;28;20045;-61
2023/12/20 01:36:30;;;;;;;11.60;1.23;;;;;;;;;;5051702;28;20491;-61
2023/12/20 01:38:56;;;;;;;10.90;1.40;;;;;;;;;;5045048;28;20083;-61
2023/12/20 01:41:22;;;;;;;15.38;1.50;;;;;;;;;;5053511;28;20056;-61
2023/12/20 01:43:48;;;;;;;10.77;1.52;;;;;;;;;;5057968;28;20033;-61
2023/12/20 01:46:15;;;;;;;13.50;1.27;;;;;;;;;;5051873;28;20055;-61
2023/12/20 01:48:41;;;;;;;17.35;1.73;;;;;;;;;;5059397;28;20098;-61
2023/12/20 01:51:07;;;;;;;10.90;1.30;;;;;;;;;;5061381;28;20055;-61
2023/12/20 01:53:33;;;;;;;18.23;1.88;;;;;;;;;;5057610;28;20090;-61
2023/12/20 01:55:59;;;;;;;10.60;1.65;;;;;;;;;;5058836;28;20048;-61
2023/12/20 01:58:26;;;;;;;10.70;1.25;;;;;;;;;;5061281;28;20079;-60
2023/12/20 02:00:52;;;;;;;15.13;1.70;;;;;;;;;;5061741;28;20048;-61
2023/12/20 02:03:18;;;;;;;16.90;1.83;;;;;;;;;;5055210;28;20044;-60
2023/12/20 02:05:45;;;;;;;13.52;1.40;;;;;;;;;;5051825;28;20053;-60
2023/12/20 02:08:11;;;;;;;14.60;1.83;;;;;;;;;;5140023;22;20041;-60
2023/12/20 02:10:37;;;;;;;17.48;1.85;;;;;;;;;;4996521;28;20057;-61
2023/12/20 02:13:04;;;;;;;10.85;1.30;;;;;;;;;;5000677;28;20045;-61
2023/12/20 02:15:30;;;;;;;14.00;2.78;;;;;;;;;;5001138;28;20053;-60
2023/12/20 02:17:56;;;;;;;10.10;1.48;;;;;;;;;;5007054;28;20392;-61
2023/12/20 02:20:22;;;;;;;18.20;2.17;;;;;;;;;;5007216;28;20049;-61
2023/12/20 02:22:48;;;;;;;16.23;1.83;;;;;;;;;;5016301;28;20041;-61
2023/12/20 02:25:14;;;;;;;14.82;1.77;;;;;;;;;;5016297;28;20049;-61
2023/12/20 02:27:41;;;;;;;15.70;2.00;;;;;;;;;;5001306;28;20049;-61
2023/12/20 02:30:07;;;;;;;13.50;1.80;;;;;;;;;;5009748;28;20609;-60
2023/12/20 02:32:33;;;;;;;17.13;1.83;;;;;;;;;;5009561;28;20146;-61
2023/12/20 02:34:59;;;;;;;13.13;1.88;;;;;;;;;;5020635;28;20267;-61
2023/12/20 02:37:25;;;;;;;18.15;2.38;;;;;;;;;;5002789;28;20049;-61
2023/12/20 02:39:51;;;;;;;12.93;1.80;;;;;;;;;;5016548;28;20041;-61
2023/12/20 02:42:17;;;;;;;15.82;1.63;;;;;;;;;;5000860;28;20377;-61
2023/12/20 02:44:43;;;;;;;13.45;1.83;;;;;;;;;;5004007;28;20127;-60
2023/12/20 02:47:09;;;;;;;19.45;2.28;;;;;;;;;;5014667;28;20703;-61
2023/12/20 02:49:35;;;;;;;12.93;2.65;;;;;;;;;;5018976;28;20046;-61
2023/12/20 02:52:01;;;;;;;19.85;2.10;;;;;;;;;;5018206;28;20048;-61
2023/12/20 02:54:27;;;;;;;16.30;1.80;;;;;;;;;;5008439;28;20038;-61
2023/12/20 02:56:53;;;;;;;19.55;1.98;;;;;;;;;;5012906;28;20840;-60
2023/12/20 02:59:19;;;;;;;18.17;2.10;;;;;;;;;;5012927;28;20121;-61
2023/12/20 03:01:45;;;;;;;18.98;2.22;;;;;;;;;;5010500;28;20510;-61
2023/12/20 03:04:12;;;;;;;13.85;1.85;;;;;;;;;;5001475;28;20053;-61
2023/12/20 03:06:38;;;;;;;17.08;1.90;;;;;;;;;;4997698;28;20078;-61
2023/12/20 03:09:04;;;;;;;15.32;2.40;;;;;;;;;;4995126;28;20148;-61
2023/12/20 03:11:30;;;;;;;21.40;1.88;;;;;;;;;;4998552;28;20050;-61
2023/12/20 03:13:56;;;;;;;17.33;2.15;;;;;;;;;;5002970;28;20041;-61
2023/12/20 03:16:22;;;;;;;16.50;2.33;;;;;;;;;;4987844;28;20042;-61
2023/12/20 03:18:48;;;;;;;14.27;2.25;;;;;;;;;;4998600;28;20472;-61
2023/12/20 03:21:14;;;;;;;13.43;2.88;;;;;;;;;;5014656;28;20060;-61
2023/12/20 03:23:41;;;;;;;11.38;1.88;;;;;;;;;;5016736;28;20042;-61
2023/12/20 03:26:09;;;;;;;20.10;2.70;;;;;;;;;;5010277;28;20061;-61
2023/12/20 03:28:37;;;;;;;19.38;3.22;;;;;;;;;;5002927;28;20053;-61
2023/12/20 03:31:03;;;;;;;21.80;1.95;;;;;;;;;;5002618;28;20415;-61
2023/12/20 03:33:29;;;;;;;22.02;2.85;;;;;;;;;;5019695;28;20436;-61
2023/12/20 03:35:55;;;;;;;24.88;5.22;;;;;;;;;;5009349;28;20494;-61
2023/12/20 03:38:23;;;;;;;22.38;2.80;;;;;;;;;;5019927;28;20084;-61
2023/12/20 03:40:49;;;;;;;35.80;3.97;;;;;;;;;;5013065;28;20046;-62
2023/12/20 03:43:15;;;;;;;30.27;4.45;;;;;;;;;;4995156;28;20133;-61
2023/12/20 03:45:43;;;;;;;24.52;2.65;;;;;;;;;;5014272;28;20052;-61
2023/12/20 03:48:09;;;;;;;27.08;2.40;;;;;;;;;;4995544;28;20053;-61
2023/12/20 03:50:35;;;;;;;23.83;2.90;;;;;;;;;;5013389;28;20045;-61
2023/12/20 03:53:01;;;;;;;17.95;3.13;;;;;;;;;;5011484;28;20048;-61
2023/12/20 03:55:27;;;;;;;26.88;2.75;;;;;;;;;;5009235;28;20691;-61
2023/12/20 03:57:53;;;;;;;18.48;2.60;;;;;;;;;;5004395;28;20130;-61
2023/12/20 04:00:19;;;;;;;19.23;2.42;;;;;;;;;;5006759;28;20476;-61
2023/12/20 04:02:45;;;;;;;22.42;2.50;;;;;;;;;;5013447;28;20049;-61
2023/12/20 04:05:11;;;;;;;23.23;3.10;;;;;;;;;;5019658;28;20498;-61
2023/12/20 04:07:37;;;;;;;20.52;3.00;;;;;;;;;;5015048;28;20099;-61
2023/12/20 04:10:04;;;;;;;22.83;2.90;;;;;;;;;;5012627;28;20050;-62
2023/12/20 04:12:30;;;;;;;30.75;3.03;;;;;;;;;;5009606;28;20056;-62
2023/12/20 04:14:56;;;;;;;26.10;3.10;;;;;;;;;;5005262;28;20100;-61
2023/12/20 04:17:22;;;;;;;23.70;3.35;;;;;;;;;;5009228;28;20048;-60
2023/12/20 04:19:49;;;;;;;19.75;2.78;;;;;;;;;;5001860;28;20125;-61
2023/12/20 04:22:15;;;;;;;23.83;3.15;;;;;;;;;;5001912;28;20037;-61
2023/12/20 04:24:42;;;;;;;18.98;2.55;;;;;;;;;;4992459;28;20050;-60
2023/12/20 04:27:08;;;;;;;23.13;2.30;;;;;;;;;;4995824;28;20045;-61
2023/12/20 04:29:34;;;;;;;24.63;3.17;;;;;;;;;;4988575;28;20601;-61
2023/12/20 04:32:00;;;;;;;27.48;3.83;;;;;;;;;;4997163;28;20054;-61
2023/12/20 04:34:26;;;;;;;22.20;2.63;;;;;;;;;;4992551;28;20104;-61
2023/12/20 04:36:53;;;;;;;26.88;3.47;;;;;;;;;;5014642;28;20045;-61
2023/12/20 04:39:19;;;;;;;21.63;3.20;;;;;;;;;;5018970;28;20526;-61
2023/12/20 04:41:45;;;;;;;25.92;2.50;;;;;;;;;;5016633;28;20052;-61
2023/12/20 04:44:11;;;;;;;27.83;4.30;;;;;;;;;;5009432;28;20045;-61
2023/12/20 04:46:37;;;;;;;20.40;2.47;;;;;;;;;;5009925;28;20056;-61
2023/12/20 04:49:03;;;;;;;22.92;2.75;;;;;;;;;;5002562;28;20038;-61
2023/12/20 04:51:29;;;;;;;26.23;3.53;;;;;;;;;;5003546;28;20402;-60
2023/12/20 04:53:55;;;;;;;24.95;3.08;;;;;;;;;;4994236;28;20038;-59
2023/12/20 04:56:21;;;;;;;21.80;2.40;;;;;;;;;;5001546;28;20045;-61
2023/12/20 04:58:46;;;;;;;22.50;2.40;;;;;;;;;;4990456;28;20254;-61
2023/12/20 05:01:13;;;;;;;18.58;3.40;;;;;;;;;;5008407;28;20505;-61
2023/12/20 05:03:39;;;;;;;20.73;3.15;;;;;;;;;;4985909;28;20535;-61
2023/12/20 05:06:05;;;;;;;20.88;2.65;;;;;;;;;;4984477;28;20057;-61
2023/12/20 05:08:31;;;;;;;24.73;4.30;;;;;;;;;;4998788;28;20127;-61
2023/12/20 05:10:57;;;;;;;21.73;3.53;;;;;;;;;;5014371;28;20639;-61
2023/12/20 05:13:23;;;;;;;19.98;3.08;;;;;;;;;;5017856;28;20053;-61
2023/12/20 05:15:49;;;;;;;24.63;3.92;;;;;;;;;;5011623;28;20049;-61
2023/12/20 05:18:15;;;;;;;19.95;3.80;;;;;;;;;;5011197;28;20095;-61
2023/12/20 05:20:41;;;;;;;21.10;2.60;;;;;;;;;;5004805;28;20049;-61
2023/12/20 05:23:07;;;;;;;24.25;2.97;;;;;;;;;;5001655;28;20388;-61
2023/12/20 05:25:33;;;;;;;22.70;3.10;;;;;;;;;;5001116;28;20480;-61
2023/12/20 05:27:59;;;;;;;24.83;3.30;;;;;;;;;;4993966;28;20116;-61
2023/12/20 05:30:26;;;;;;;26.50;3.53;;;;;;;;;;4998863;28;20033;-61
2023/12/20 05:32:52;;;;;;;19.75;3.15;;;;;;;;;;4992219;28;20093;-61
2023/12/20 05:35:19;;;;;;;18.90;3.30;;;;;;;;;;5020133;28;20061;-61
2023/12/20 05:37:45;;;;;;;31.55;3.42;;;;;;;;;;5018637;28;20528;-61
2023/12/20 05:40:11;;;;;;;26.60;3.80;;;;;;;;;;5014960;28;20092;-61
2023/12/20 05:42:37;;;;;;;22.13;2.90;;;;;;;;;;5016530;28;20040;-60
2023/12/20 05:45:04;;;;;;;23.98;3.28;;;;;;;;;;5013713;28;20037;-61
2023/12/20 05:47:30;;;;;;;15.75;3.30;;;;;;;;;;5012368;28;20052;-61
2023/12/20 05:49:56;;;;;;;20.77;2.55;;;;;;;;;;5014102;28;20045;-61
2023/12/20 05:52:22;;;;;;;22.83;2.95;;;;;;;;;;5003221;28;20133;-61
2023/12/20 05:54:48;;;;;;;21.77;3.15;;;;;;;;;;5018471;28;20757;-61
2023/12/20 05:57:15;;;;;;;15.48;2.28;;;;;;;;;;5011685;28;20053;-60
2023/12/20 05:59:41;;;;;;;17.08;3.00;;;;;;;;;;5013322;28;20037;-61
2023/12/20 06:02:07;;;;;;;25.20;3.15;;;;;;;;;;5004012;28;20288;-61
2023/12/20 06:04:33;;;;;;;22.17;3.45;;;;;;;;;;5000824;28;20096;-60
2023/12/20 06:06:59;;;;;;;26.20;3.78;;;;;;;;;;4992734;28;20038;-60
2023/12/20 06:09:25;;;;;;;21.88;2.85;;;;;;;;;;5007728;28;20118;-61
2023/12/20 06:11:51;;;;;;;24.90;3.08;;;;;;;;;;4988571;28;20050;-61
2023/12/20 06:14:17;;;;;;;48.72;5.20;;;;;;;;;;4992627;28;20060;-61
2023/12/20 06:16:43;;;;;;;21.23;2.80;;;;;;;;;;5005773;28;20136;-61
2023/12/20 06:19:09;;;;;;;21.02;2.00;;;;;;;;;;5004769;28;20038;-61
2023/12/20 06:21:35;;;;;;;20.25;3.33;;;;;;;;;;5001226;28;20053;-61
2023/12/20 06:24:01;;;;;;;23.50;3.35;;;;;;;;;;4996881;28;20046;-61
2023/12/20 06:26:27;;;;;;;32.50;3.95;;;;;;;;;;5006119;28;20046;-60
2023/12/20 06:28:53;;;;;;;20.73;2.63;;;;;;;;;;5011984;28;20495;-62
2023/12/20 06:31:19;;;;;;;19.13;2.70;;;;;;;;;;4992959;28;20037;-61
2023/12/20 06:33:45;;;;;;;23.08;3.00;;;;;;;;;;5004159;28;20037;-61
2023/12/20 06:36:13;;;;;;;32.40;4.30;;;;;;;;;;4997500;28;20116;-61
2023/12/20 06:38:39;;;;;;;30.30;4.22;;;;;;;;;;5001072;28;20128;-61
2023/12/20 06:41:05;;;;;;;23.52;3.42;;;;;;;;;;4987292;28;20050;-61
2023/12/20 06:43:32;;;;;;;17.30;2.40;;;;;;;;;;5012589;28;20529;-61
2023/12/20 06:45:58;;;;;;;25.92;4.15;;;;;;;;;;4992726;28;20042;-61
2023/12/20 06:48:24;;;;;;;18.08;3.00;;;;;;;;;;4995797;28;20054;-61
2023/12/20 06:50:50;;;;;;;27.80;3.33;;;;;;;;;;4998142;28;20045;-61
2023/12/20 06:53:16;;;;;;;18.92;2.70;;;;;;;;;;4999638;28;20037;-61
2023/12/20 06:55:42;;;;;;;23.00;2.95;;;;;;;;;;4988733;28;20125;-61
2023/12/20 06:58:08;;;;;;;18.98;2.90;;;;;;;;;;4998841;28;20455;-61
2023/12/20 07:00:34;;;;;;;21.30;3.00;;;;;;;;;;5000283;28;20462;-61
2023/12/20 07:03:01;;;;;;;23.30;3.10;;;;;;;;;;5005463;28;20766;-60
2023/12/20 07:05:27;;;;;;;20.75;3.83;;;;;;;;;;5008297;28;20041;-61
2023/12/20 07:07:53;;;;;;;23.30;3.78;;;;;;;;;;5006698;28;20121;-61
2023/12/20 07:10:19;;;;;;;25.20;3.20;;;;;;;;;;5000269;28;20050;-61
2023/12/20 07:12:45;;;;;;;22.70;3.58;;;;;;;;;;5009652;28;20050;-61
2023/12/20 07:15:12;;;;;;;25.60;3.00;;;;;;;;;;5017048;28;20502;-61
2023/12/20 07:17:38;;;;;;;29.73;3.45;;;;;;;;;;5005873;28;20042;-61
2023/12/20 07:20:06;;;;;;;17.83;2.75;;;;;;;;;;5011598;28;20123;-61
2023/12/20 07:22:32;;;;;;;27.88;4.05;;;;;;;;;;5001469;28;20042;-61
2023/12/20 07:24:58;;;;;;;20.10;3.30;;;;;;;;;;5004303;28;20159;-61
2023/12/20 07:27:25;;;;;;;19.58;3.35;;;;;;;;;;4996814;28;20129;-61
2023/12/20 07:29:51;;;;;;;18.08;2.92;;;;;;;;;;4995522;28;20085;-61
2023/12/20 07:32:17;;;;;;;23.92;4.43;;;;;;;;;;4998078;28;20030;-61
2023/12/20 07:34:43;;;;;;;22.50;3.85;;;;;;;;;;5001353;28;20100;-61
2023/12/20 07:37:11;;;;;;;23.23;2.75;;;;;;;;;;5014810;28;20545;-61
2023/12/20 07:39:37;;;;;;;33.22;4.50;;;;;;;;;;5019249;28;20042;-61
2023/12/20 07:42:03;;;;;;;31.90;3.33;;;;;;;;;;5015961;28;20038;-61
2023/12/20 07:44:29;;;;;;;30.30;3.53;;;;;;;;;;5016283;28;20687;-61
2023/12/20 07:46:55;;;;;;;26.33;3.28;;;;;;;;;;5009121;28;20100;-61
2023/12/20 07:49:21;;;;;;;24.42;3.45;;;;;;;;;;5009710;28;20041;-61
2023/12/20 07:51:47;;;;;;;19.58;2.95;;;;;;;;;;5007571;28;20069;-61
2023/12/20 07:54:13;;;;;;;23.15;2.92;;;;;;;;;;5005485;28;20133;-61
2023/12/20 07:56:40;;;;;;;21.30;3.35;;;;;;;;;;5000060;28;20050;-61
2023/12/20 07:59:06;;;;;;;26.10;2.92;;;;;;;;;;4994350;28;20436;-61
2023/12/20 08:01:32;;;;;;;18.48;3.58;;;;;;;;;;5006072;28;20069;-61
2023/12/20 08:03:58;;;;;;;18.73;2.85;;;;;;;;;;4989107;28;20042;-61
2023/12/20 08:06:24;;;;;;;31.15;5.97;;;;;;;;;;5000127;28;20043;-61
2023/12/20 08:08:50;;;;;;;24.25;4.57;;;;;;;;;;4984271;28;20054;-61
2023/12/20 08:11:17;;;;;;;20.90;3.42;;;;;;;;;;5029583;28;20045;-61
2023/12/20 08:13:43;;;;;;;18.77;2.95;;;;;;;;;;5019124;28;20053;-61
2023/12/20 08:16:09;;;;;;;25.05;3.22;;;;;;;;;;5010040;28;20046;-61
2023/12/20 08:18:35;;;;;;;31.98;3.70;;;;;;;;;;5014137;28;20053;-61
2023/12/20 08:21:02;;;;;;;25.08;3.65;;;;;;;;;;5002749;28;20499;-61
2023/12/20 08:23:28;;;;;;;26.95;2.92;;;;;;;;;;5009205;28;20041;-61
2023/12/20 08:25:54;;;;;;;19.48;2.45;;;;;;;;;;5004806;28;20045;-61
2023/12/20 08:28:20;;;;;;;20.45;2.58;;;;;;;;;;5001365;28;20049;-61
2023/12/20 08:30:46;;;;;;;17.02;2.30;;;;;;;;;;4994898;28;20503;-61
2023/12/20 08:33:12;;;;;;;23.27;3.00;;;;;;;;;;5004982;28;20059;-61
2023/12/20 08:35:41;;;;;;;19.63;3.33;;;;;;;;;;5007933;28;20041;-61
2023/12/20 08:38:07;;;;;;;30.40;3.58;;;;;;;;;;5018398;28;20474;-61
2023/12/20 08:40:33;;;;;;;17.92;3.33;;;;;;;;;;5012739;28;20050;-61
2023/12/20 08:42:59;;;;;;;23.42;3.15;;;;;;;;;;5014123;28;20103;-61
2023/12/20 08:45:25;;;;;;;18.67;2.30;;;;;;;;;;5008541;28;20046;-62
2023/12/20 08:47:51;;;;;;;28.85;3.30;;;;;;;;;;5009539;28;20462;-61
2023/12/20 08:50:18;;;;;;;19.08;3.33;;;;;;;;;;4999380;28;20050;-61
2023/12/20 08:52:44;;;;;;;20.58;3.20;;;;;;;;;;5003391;28;20049;-61
2023/12/20 08:55:10;;;;;;;23.05;3.10;;;;;;;;;;4998874;28;20056;-61
2023/12/20 08:57:36;;;;;;;22.88;3.08;;;;;;;;;;4999299;28;20050;-62
2023/12/20 09:00:03;;;;;;;24.90;3.28;;;;;;;;;;4996760;28;20128;-61
2023/12/20 09:02:29;;;;;;;25.25;3.15;;;;;;;;;;4993917;28;20722;-61
2023/12/20 09:04:55;;;;;;;19.90;2.80;;;;;;;;;;4987040;28;20049;-61
2023/12/20 09:07:30;;;;;;;24.95;3.65;;;;;;;;;;4994821;28;20092;-61
2023/12/20 09:09:56;;;;;;;20.08;3.22;;;;;;;;;;4994454;28;20132;-61
2023/12/20 09:12:22;;;;;;;20.70;2.42;;;;;;;;;;5018117;28;20049;-61
2023/12/20 09:14:49;;;;;;;22.40;2.70;;;;;;;;;;5012021;28;20041;-61
2023/12/20 09:17:16;;;;;;;16.85;3.13;;;;;;;;;;5013388;28;20140;-61
2023/12/20 09:19:43;;;;;;;18.70;2.97;;;;;;;;;;5008412;28;20070;-62
2023/12/20 09:22:09;;;;;;;20.63;3.03;;;;;;;;;;5007368;28;20080;-61
2023/12/20 09:24:35;;;;;;;17.58;3.25;;;;;;;;;;4997580;28;20042;-61
2023/12/20 09:27:01;;;;;;;19.60;2.45;;;;;;;;;;5002929;28;20442;-61
2023/12/20 09:29:27;;;;;;;21.95;2.67;;;;;;;;;;4991716;28;20038;-61
2023/12/20 09:31:53;;;;;;;22.48;2.60;;;;;;;;;;5001631;28;20128;-61
2023/12/20 09:34:19;;;;;;;16.35;2.17;;;;;;;;;;4996044;28;20141;-61
2023/12/20 09:36:46;;;;;;;15.73;2.38;;;;;;;;;;5011071;28;20536;-61
2023/12/20 09:39:20;;;;;;;17.48;2.60;;;;;;;;;;5016267;28;20045;-61
2023/12/20 09:41:46;;;;;;;13.27;2.13;;;;;;;;;;5012501;28;20498;-61
2023/12/20 09:44:15;;;;;;;10.07;1.77;;;;;;;;;;5009694;28;20051;-61
2023/12/20 09:46:43;;;;;;;9.23;0.95;;;;;;;;;;5007692;28;20049;-61
2023/12/20 09:49:09;;;;;;;;;;;;;;;;;;5003375;28;20045;-61
2023/12/20 09:51:36;;;;;;;5.68;0.70;;;;;;;;;;5000749;28;19984;-61
2023/12/20 09:54:04;;;;;;;8.25;0.70;;;;;;;;;;4994178;28;20046;-61
2023/12/20 09:56:30;;;;;;;7.55;0.90;;;;;;;;;;4995977;28;20062;-61
2023/12/20 09:58:56;;;;;;;7.50;0.73;;;;;;;;;;4988658;28;20042;-61
2023/12/20 10:01:24;;;;;;;7.05;0.68;;;;;;;;;;5001153;28;20484;-61
2023/12/20 10:03:51;;;;;;;16.00;1.17;;;;;;;;;;4985409;28;20100;-61
2023/12/20 10:06:17;;;;;;;4.57;0.68;;;;;;;;;;4983498;28;20117;-62
2023/12/20 10:08:43;;;;;;;10.10;0.80;;;;;;;;;;5000243;28;20049;-61
2023/12/20 10:11:09;;;;;;;8.82;1.08;;;;;;;;;;5015168;28;20100;-61
2023/12/20 10:13:40;;;;;;;7.88;0.60;;;;;;;;;;5015720;28;20069;-61
2023/12/20 10:16:07;;;;;;;3.15;0.50;;;;;;;;;;5005503;28;20117;-61
2023/12/20 10:18:33;;;;;;;10.60;0.90;;;;;;;;;;5011755;28;20045;-61
2023/12/20 10:20:59;;;;;;;8.15;0.93;;;;;;;;;;4999535;28;20034;-61
2023/12/20 10:23:25;;;;;;;3.50;0.52;;;;;;;;;;5005876;28;20041;-61
2023/12/20 10:25:58;;;;;;;3.80;0.50;;;;;;;;;;4995802;28;20058;-61
2023/12/20 10:28:27;;;;;;;9.70;0.77;;;;;;;;;;4999529;28;20044;-61
2023/12/20 10:30:54;;;;;;;7.35;0.88;;;;;;;;;;4992197;28;20128;-61
2023/12/20 10:33:24;;;;;;;9.82;0.90;;;;;;;;;;4996230;28;20050;-61
2023/12/20 10:35:50;;;;;;;9.55;0.98;;;;;;;;;;5000616;28;20042;-61
2023/12/20 10:38:16;;;;;;;7.78;0.77;;;;;;;;;;5011269;28;20052;-61
2023/12/20 10:40:43;;;;;;;10.73;0.70;;;;;;;;;;5010915;28;20025;-61
2023/12/20 10:43:09;;;;;;;10.32;0.82;;;;;;;;;;5013931;28;20379;-61
2023/12/20 10:45:35;;;;;;;6.60;0.77;;;;;;;;;;5011546;28;20116;-61
2023/12/20 10:48:02;;;;;;;10.40;0.77;;;;;;;;;;5014104;28;20533;-62
2023/12/20 10:50:29;;;;;;;11.13;1.20;;;;;;;;;;4999517;28;20050;-61
2023/12/20 10:52:56;;;;;;;9.25;0.95;;;;;;;;;;5012773;28;20415;-61
2023/12/20 10:55:23;;;;;;;6.90;0.93;;;;;;;;;;5013001;28;20094;-61
2023/12/20 10:57:50;;;;;;;5.85;0.73;;;;;;;;;;5016685;28;20076;-61
2023/12/20 11:00:18;;;;;;;5.53;0.63;;;;;;;;;;5011210;28;20045;-61
2023/12/20 11:02:44;;;;;;;6.68;1.30;;;;;;;;;;5005054;28;20034;-61
2023/12/20 11:05:28;;;;;;;8.35;0.70;;;;;;;;;;5003786;28;20060;-61
2023/12/20 11:08:13;;;;;;;10.48;0.70;;;;;;;;;;5001121;28;20049;-61
2023/12/20 11:10:58;;;;;;;7.47;1.27;;;;;;;;;;4992384;28;20109;-61
2023/12/20 11:13:28;;;;;;;7.28;1.10;;;;;;;;;;4989101;28;20049;-61
2023/12/20 11:15:54;;;;;;;5.32;0.70;;;;;;;;;;4987389;28;20515;-61
2023/12/20 11:18:20;;;;;;;10.45;0.95;;;;;;;;;;4987924;28;20539;-61
2023/12/20 11:20:46;;;;;;;8.63;0.95;;;;;;;;;;5006361;28;20053;-61
2023/12/20 11:23:14;;;;;;;12.10;1.40;;;;;;;;;;5017087;28;20045;-61
2023/12/20 11:25:52;;;;;;;9.60;1.20;;;;;;;;;;5019928;28;20124;-61
2023/12/20 11:28:21;;;;;;;11.82;1.42;;;;;;;;;;5011374;28;20630;-61
2023/12/20 11:30:48;;;;;;;11.43;0.80;;;;;;;;;;4999418;28;20078;-61
2023/12/20 11:33:21;;;;;;;5.63;1.00;;;;;;;;;;4997591;28;20097;-61
2023/12/20 11:35:47;;;;;;;11.07;1.55;;;;;;;;;;5004089;28;20046;-61
2023/12/20 11:38:14;;;;;;;7.70;0.90;;;;;;;;;;5014820;28;20041;-61
2023/12/20 11:40:41;;;;;;;9.43;1.23;;;;;;;;;;5015044;28;20080;-61
2023/12/20 11:43:07;;;;;;;9.00;1.35;;;;;;;;;;5017654;28;20046;-61
2023/12/20 11:45:37;;;;;;;5.95;0.93;;;;;;;;;;5006941;28;20042;-61
2023/12/20 11:48:03;;;;;;;6.70;0.80;;;;;;;;;;5012299;28;20368;-61
2023/12/20 11:50:30;;;;;;;15.45;1.15;;;;;;;;;;5000765;28;20106;-61
2023/12/20 11:52:56;;;;;;;11.05;1.25;;;;;;;;;;4987283;28;20050;-61
2023/12/20 11:55:23;;;;;;;14.52;1.30;;;;;;;;;;4985444;28;20039;-61
2023/12/20 11:57:50;;;;;;;8.30;0.90;;;;;;;;;;4999266;28;20439;-61
2023/12/20 12:00:16;;;;;;;12.65;0.95;;;;;;;;;;5005387;28;20499;-61
2023/12/20 12:02:43;;;;;;;12.95;0.90;;;;;;;;;;5010420;28;20129;-61
2023/12/20 12:05:09;;;;;;;14.45;1.42;;;;;;;;;;5016051;28;20521;-61
2023/12/20 12:07:35;;;;;;;6.45;1.13;;;;;;;;;;5002449;28;20041;-61
2023/12/20 12:10:03;;;;;;;11.90;0.95;;;;;;;;;;5019037;28;20061;-61
2023/12/20 12:12:30;;;;;;;8.73;1.00;;;;;;;;;;5010885;28;20055;-61
2023/12/20 12:14:57;;;;;;;12.32;2.03;;;;;;;;;;5015849;28;20519;-61
2023/12/20 12:17:23;;;;;;;11.88;1.30;;;;;;;;;;5007076;28;20130;-61
2023/12/20 12:19:49;;;;;;;13.57;2.08;;;;;;;;;;5008449;28;20053;-56
2023/12/20 12:22:19;;;;;;;10.88;1.52;;;;;;;;;;5001087;28;20054;-62
2023/12/20 12:24:46;;;;;;;9.10;1.02;;;;;;;;;;4994272;28;20149;-61
2023/12/20 12:27:13;;;;;;;8.40;1.70;;;;;;;;;;4997156;28;20092;-61
2023/12/20 12:29:39;;;;;;;11.90;0.90;;;;;;;;;;5002612;28;20496;-62
2023/12/20 12:32:08;;;;;;;14.05;1.52;;;;;;;;;;4995820;28;20046;-61
2023/12/20 12:34:37;;;;;;;12.75;1.05;;;;;;;;;;4983933;28;20133;-62
2023/12/20 12:37:04;;;;;;;12.32;1.17;;;;;;;;;;4998979;28;20050;-62
2023/12/20 12:39:30;;;;;;;12.63;1.10;;;;;;;;;;4995407;28;20041;-62
2023/12/20 12:41:57;;;;;;;17.52;1.40;;;;;;;;;;4989013;28;20109;-61
2023/12/20 12:44:26;;;;;;;9.88;0.88;;;;;;;;;;4998174;28;20130;-61
2023/12/20 12:46:53;;;;;;;9.88;1.25;;;;;;;;;;5001492;28;20054;-61
2023/12/20 12:49:22;;;;;;;22.08;7.18;;;;;;;;;;4998921;28;20046;-61
2023/12/20 12:51:48;;;;;;;10.57;1.42;;;;;;;;;;5008106;28;20049;-62
2023/12/20 12:54:16;;;;;;;12.25;1.20;;;;;;;;;;5002605;28;20045;-62
2023/12/20 12:56:42;;;;;;;11.73;0.98;;;;;;;;;;5003913;28;20057;-62
2023/12/20 12:59:09;;;;;;;8.85;1.20;;;;;;;;;;5003348;28;20094;-62
2023/12/20 13:01:35;;;;;;;9.52;1.35;;;;;;;;;;5007251;28;20490;-62
2023/12/20 13:04:03;;;;;;;7.80;1.02;;;;;;;;;;5006484;28;20052;-62
2023/12/20 13:06:29;;;;;;;12.63;1.17;;;;;;;;;;5011877;28;20046;-62
2023/12/20 13:08:55;;;;;;;7.50;0.90;;;;;;;;;;5003207;28;20500;-61
2023/12/20 13:11:21;;;;;;;8.10;0.93;;;;;;;;;;5004429;28;20041;-62
2023/12/20 13:13:47;;;;;;;8.93;1.10;;;;;;;;;;5002841;28;20043;-63
2023/12/20 13:16:13;;;;;;;9.63;0.90;;;;;;;;;;5002939;28;20049;-61
2023/12/20 13:18:42;;;;;;;9.40;0.85;;;;;;;;;;5010358;28;20033;-62
2023/12/20 13:21:08;;;;;;;6.57;0.77;;;;;;;;;;5005341;28;20058;-62
2023/12/20 13:23:34;;;;;;;13.95;1.23;;;;;;;;;;5007817;28;20240;-62
2023/12/20 13:26:00;;;;;;;10.48;1.60;;;;;;;;;;4995766;28;20487;-61
2023/12/20 13:28:26;;;;;;;9.98;0.73;;;;;;;;;;5002690;28;20045;-62
2023/12/20 13:30:52;;;;;;;13.85;0.90;;;;;;;;;;4986979;28;20038;-61
2023/12/20 13:33:18;;;;;;;7.18;0.77;;;;;;;;;;4999817;28;20668;-62
2023/12/20 13:35:44;;;;;;;8.80;1.27;;;;;;;;;;4997734;28;20049;-63
2023/12/20 13:38:11;;;;;;;11.48;0.90;;;;;;;;;;5004782;28;20044;-63
2023/12/20 13:40:37;;;;;;;12.25;1.20;;;;;;;;;;5003713;28;20053;-62
2023/12/20 13:43:03;;;;;;;8.68;1.20;;;;;;;;;;5003773;28;20048;-62
2023/12/20 13:45:29;;;;;;;14.52;1.27;;;;;;;;;;5002172;28;20145;-62
2023/12/20 13:47:55;;;;;;;9.02;1.08;;;;;;;;;;5007562;28;20180;-62
2023/12/20 13:50:21;;;;;;;11.38;1.77;;;;;;;;;;5015243;28;20073;-62
2023/12/20 13:52:47;;;;;;;4.90;0.93;;;;;;;;;;5013637;28;20142;-62
2023/12/20 13:55:13;;;;;;;9.50;1.35;;;;;;;;;;5004618;28;20511;-62
2023/12/20 13:57:41;;;;;;;8.85;1.33;;;;;;;;;;4995155;28;20396;-63
2023/12/20 14:00:14;;;;;;;10.52;1.35;;;;;;;;;;4993950;28;20050;-62
2023/12/20 14:02:40;;;;;;;9.02;0.90;;;;;;;;;;4998789;28;20053;-62
2023/12/20 14:05:06;;;;;;;8.93;1.27;;;;;;;;;;5004040;28;20041;-62
2023/12/20 14:07:32;;;;;;;13.45;1.30;;;;;;;;;;4997629;28;20050;-62
2023/12/20 14:09:59;;;;;;;11.52;1.20;;;;;;;;;;5006774;28;20073;-62
2023/12/20 14:12:25;;;;;;;8.25;0.93;;;;;;;;;;4995953;28;20046;-61
2023/12/20 14:14:51;;;;;;;9.52;1.42;;;;;;;;;;4999030;28;20124;-62
2023/12/20 14:17:18;;;;;;;6.60;0.65;;;;;;;;;;4997754;28;20129;-62
2023/12/20 14:19:44;;;;;;;8.75;0.90;;;;;;;;;;5002332;28;20581;-62
2023/12/20 14:22:10;;;;;;;6.32;1.48;;;;;;;;;;4983806;28;20064;-62
2023/12/20 14:24:36;;;;;;;4.95;0.77;;;;;;;;;;5013777;28;20675;-62
2023/12/20 14:27:02;;;;;;;11.57;1.13;;;;;;;;;;5017627;28;20133;-61
2023/12/20 14:29:28;;;;;;;8.27;0.95;;;;;;;;;;4983175;28;20077;-62